Swinney Switch, Texas
Current Conditions -  °F | °C
As of 5:15 AM on Saturday 25 Oct 2014 (Local Time) from KBEA Reporting Station
Clear Clear  
Wind Chill: 64°   Ceiling: Unl
Heat Index: 64°   Visibility: 10mi
Dew Point: 59°   Wind: 3mph
Humidity: 86%   Direction: 270°W
Pressure: 30.13"   Gusts: NA
Location:  28.0654°N, 97.7489°W
Report Text: KBEA 251015Z AUTO 27003KT 10SM CLR 18/15 A3013 RMK AO2 T01760152
Loading
Personal Weather Stations






























Interactive Weather Map
Tropical Storm Tracking
New forecast layout! Learn more

10-Day Weather Forecast

Advertisements
Track Severe Weather on mobile